This is the latest recevied weather packets stored in our database for station/object WA6GRA. If no packets are shown the sender has not sent any weather packets the latest 10 day(s).
| Time | Temp. | Humidity | Pressure | Rain* | Wind** | Luminosity | Snow |
|---|---|---|---|---|---|---|---|
| 1777542984 | 13.89° C | 79% | 1013.1 hPa | 0 mm | - | 0 W/m² | - |
| 1777542383 | 14.44° C | 77% | 1013.1 hPa | 0 mm | - | 0 W/m² | - |
| 1777541783 | 14.44° C | 77% | 1013.2 hPa | 0 mm | - | 0 W/m² | - |
| 1777541182 | 14.44° C | 78% | 1013.5 hPa | 0 mm | - | 0 W/m² | - |
| 1777540576 | 15° C | 77% | 1013.4 hPa | 0 mm | - | 0 W/m² | - |
| 1777539975 | 15° C | 78% | 1013.5 hPa | 0 mm | - | 0 W/m² | - |
| 1777539373 | 15° C | 79% | 1013.6 hPa | 0 mm | - | 0 W/m² | - |
| 1777538771 | 15° C | 77% | 1013.7 hPa | 0 mm | - | 0 W/m² | - |
| 1777538168 | 14.44° C | 79% | 1013.7 hPa | 0 mm | - | 0 W/m² | - |
| 1777537566 | 15° C | 77% | 1013.8 hPa | 0 mm | - | 0 W/m² | - |
| 1777536963 | 15.56° C | 75% | 1013.6 hPa | 0 mm | - | 0 W/m² | - |
| 1777536358 | 15.56° C | 74% | 1013.8 hPa | 0 mm | - | 0 W/m² | - |
| 1777535756 | 15.56° C | 75% | 1014 hPa | 0 mm | - | 0 W/m² | - |
| 1777535150 | 16.11° C | 73% | 1014 hPa | 0 mm | - | 0 W/m² | - |
| 1777534549 | 16.11° C | 72% | 1013.9 hPa | 0 mm | - | 0 W/m² | - |
| 1777533944 | 16.67° C | 70% | 1014.2 hPa | 0 mm | - | 0 W/m² | - |
| 1777533343 | 16.67° C | 69% | 1014.1 hPa | 0 mm | - | 0 W/m² | - |
| 1777532742 | 16.67° C | 68% | 1014 hPa | 0 mm | - | 0 W/m² | - |
| 1777532142 | 17.22° C | 67% | 1014.1 hPa | 0 mm | - | 0 W/m² | - |
| 1777531538 | 17.22° C | 66% | 1014 hPa | 0 mm | - | 0 W/m² | - |
| 1777530934 | 17.22° C | 66% | 1014.1 hPa | 0 mm | - | 0 W/m² | - |
| 1777530334 | 17.78° C | 63% | 1014 hPa | 0 mm | - | 0 W/m² | - |
| 1777529734 | 17.78° C | 61% | 1013.8 hPa | 0 mm | - | 0 W/m² | - |
| 1777529133 | 18.33° C | 60% | 1014.1 hPa | 0 mm | - | 0 W/m² | - |
| 1777528531 | 18.89° C | 59% | 1013.9 hPa | 0 mm | - | 0 W/m² | - |
* Rain latest hour (hover to see other rain measurements)
** Current wind speed in m/s (hover to see current wind gust speed)